Date,TemperatureHighF,TemperatureAvgF,TemperatureLowF,DewpointHighF,DewpointAvgF,DewpointLowF,HumidityHigh,HumidityAvg,HumidityLow,PressureMaxIn,PressureMinIn,WindSpeedMaxMPH,WindSpeedAvgMPH,GustSpeedMaxMPH,PrecipitationSumIn
2013-1-1,46.9,44.9,41.4,38.4,31.0,15.2,74,60,28,30.10,29.35,14,3,14,0.15
2013-1-2,45.5,25.8,0.0,37.7,35.5,28.9,74,43,66,30.19,29.92,7,1,7,0.30
2013-1-3,41.0,36.5,26.4,31.6,28.3,19.0,74,72,66,30.25,30.14,5,1,5,0.00
2013-1-4,50.9,36.7,25.9,23.2,16.0,8.9,74,47,19,30.30,30.18,17,4,17,0.00
2013-1-5,57.2,39.9,26.1,23.1,14.3,3.4,59,38,15,30.38,30.24,14,3,14,0.00
2013-1-6,54.3,42.5,36.5,31.2,27.2,22.8,69,55,34,30.24,30.05,9,2,9,0.07
2013-1-7,59.2,37.5,27.5,31.6,21.5,17.2,72,55,24,30.43,30.17,20,3,20,0.00
2013-1-8,57.9,38.6,24.1,33.8,24.6,16.4,73,60,29,30.47,30.36,6,1,6,0.00
2013-1-9,68.2,49.3,31.3,44.2,35.3,23.7,74,60,41,30.44,30.34,19,3,19,0.00
2013-1-10,66.2,47.6,42.3,42.3,29.9,25.4,72,51,28,30.54,30.41,7,2,7,0.00
2013-1-11,45.5,18.2,0.0,31.8,30.2,23.4,72,24,42,30.44,30.14,8,1,8,0.06
2013-1-12,70.5,25.4,0.0,54.7,39.5,31.8,72,28,57,30.17,30.10,9,1,9,0.03
2013-1-13,75.4,62.5,55.2,55.4,49.8,46.7,73,64,42,30.14,30.04,18,5,18,0.00
2013-1-14,69.3,61.0,49.3,59.9,50.9,40.3,73,69,63,30.18,30.08,23,4,23,0.39
2013-1-15,54.5,43.1,41.5,40.3,35.1,33.5,75,72,70,30.26,30.08,19,5,19,0.08
2013-1-16,48.0,32.7,0.0,34.5,33.8,33.7,73,56,59,30.09,29.96,4,2,4,0.21
2013-1-17,33.4,4.9,0.0,34.4,32.3,20.0,61,9,59,30.15,29.92,15,1,15,1.01
2013-1-18,46.6,35.2,25.9,29.0,20.3,15.0,71,56,29,30.52,30.14,13,2,13,0.35
2013-1-19,54.5,35.7,23.4,26.4,18.7,11.4,73,54,18,30.49,30.12,14,3,14,0.00
2013-1-20,60.8,43.7,36.3,25.1,21.8,16.6,55,43,19,30.13,29.99,21,6,21,0.00
2013-1-21,59.9,51.5,26.1,27.6,8.1,-8.4,72,19,10,30.08,29.85,18,7,18,0.00
2013-1-22,41.0,31.4,19.0,1.3,-19.2,-57.7,42,14,1,30.27,29.94,21,6,21,0.00
2013-1-23,39.9,26.6,12.9,10.6,0.1,-15.7,63,35,11,30.36,30.04,19,3,19,0.00
2013-1-24,34.9,29.2,18.7,14.9,-1.9,-27.7,48,29,6,30.51,29.94,28,7,28,0.00
2013-1-25,25.7,21.7,15.1,18.3,8.1,-3.4,73,57,30,30.50,30.08,12,2,12,0.00
2013-1-26,35.6,28.7,23.4,26.5,21.2,16.1,76,73,69,30.40,30.06,4,0,4,0.12
2013-1-27,42.1,30.1,19.6,25.4,17.6,12.7,77,61,38,30.59,30.38,11,2,11,0.00
2013-1-28,51.6,41.5,27.5,40.4,28.7,17.3,72,61,44,30.49,30.21,17,6,17,0.02
2013-1-29,75.4,60.4,-5.6,52.9,42.7,-25.5,73,55,30,30.22,30.05,17,6,17,0.38
2013-1-30,76.1,67.1,60.1,56.1,53.6,42.0,71,62,52,30.06,29.38,40,17,40,0.37
2013-1-31,63.1,46.7,32.0,52.8,19.2,-4.0,69,36,12,29.99,29.42,29,11,29,0.12
2013-2-1,47.5,33.1,21.6,22.6,7.8,-28.6,51,37,5,30.38,29.85,24,8,24,0.02
2013-2-2,48.2,30.7,14.7,25.8,1.7,-12.2,59,32,10,30.38,30.02,23,5,23,0.00
2013-2-3,48.9,38.3,29.3,27.0,20.4,11.8,73,51,24,30.02,29.84,20,4,20,0.00
2013-2-4,49.1,36.9,22.6,18.7,11.3,2.9,66,38,15,30.14,29.98,17,4,17,0.00
2013-2-5,60.4,44.6,32.4,24.7,20.9,13.1,65,41,17,29.99,29.87,17,4,17,0.00
2013-2-6,61.7,44.0,28.4,28.7,16.7,-4.6,72,41,7,30.29,29.96,17,3,17,0.00
2013-2-7,45.9,39.7,33.3,34.9,28.1,23.0,77,64,46,30.34,30.02,14,5,14,0.54
2013-2-8,67.1,44.8,33.4,48.9,31.0,12.3,77,60,33,30.03,29.80,19,7,19,0.43
2013-2-9,61.0,38.6,26.1,26.1,9.4,-28.6,62,37,4,30.34,30.02,21,4,21,0.00
2013-2-10,52.2,28.8,0.0,29.2,15.5,0.1,68,55,12,30.48,30.20,14,2,14,0.06
2013-2-11,78.8,53.2,41.2,52.1,44.1,29.2,76,71,62,30.20,29.91,18,5,18,0.07
2013-2-12,61.3,52.3,43.5,45.6,21.2,1.4,69,33,9,30.08,29.91,17,4,17,0.00
2013-2-13,50.0,46.6,40.3,38.9,31.0,24.8,76,57,37,29.96,29.64,13,5,14,0.15
2013-2-14,50.2,38.5,28.9,29.3,23.2,15.6,71,55,28,30.06,29.81,9,3,9,0.00
2013-2-15,62.8,44.4,26.1,36.3,19.5,4.8,73,45,10,30.08,29.91,27,3,27,0.00
2013-2-16,44.4,35.4,29.5,27.8,25.5,16.0,75,68,46,29.97,29.83,12,3,12,0.25
2013-2-17,42.1,30.4,21.9,21.8,0.1,-21.9,72,31,11,30.08,29.90,22,4,22,0.02
2013-2-18,59.5,32.7,9.0,18.7,5.4,-5.3,67,38,9,30.22,30.05,15,4,15,0.01
2013-2-19,52.0,41.1,33.4,41.2,28.0,-20.1,74,61,6,30.05,29.67,98,7,98,0.08
2013-2-20,95.5,41.6,30.9,24.9,2.1,-46.2,51,24,1,29.96,29.77,18,4,18,0.00
2013-2-21,54.3,41.6,23.0,17.7,2.8,-13.1,57,23,6,30.09,29.92,16,5,16,3.02
2013-2-22,45.0,35.7,31.5,28.5,22.1,9.2,77,59,28,30.17,29.95,9,2,9,0.14
2013-2-23,43.3,39.0,34.9,35.6,31.9,28.4,78,76,73,29.95,29.63,11,3,11,0.19
2013-2-24,71.2,48.2,35.6,39.4,26.2,0.2,75,50,8,29.85,29.61,100,4,100,0.02
2013-2-25,61.2,35.8,29.3,27.8,14.7,10.4,59,43,28,30.05,29.85,11,4,11,0.01
2013-2-26,55.0,43.3,31.8,48.0,33.8,17.5,77,69,48,29.97,29.39,21,6,21,0.56
2013-2-27,60.8,49.3,41.2,38.0,30.4,20.5,77,52,22,29.59,29.43,18,6,18,0.00
2013-2-28,50.5,41.8,31.5,30.8,21.6,12.7,71,47,22,29.67,29.50,21,4,21,0.01
2013-3-1,50.2,40.5,30.4,28.5,18.4,14.2,61,42,25,29.73,29.64,18,4,18,0.00
2013-3-2,48.0,38.7,24.1,23.2,15.0,10.1,60,39,25,29.73,29.63,13,2,13,0.00
2013-3-3,51.4,36.5,28.2,18.6,8.9,2.5,45,33,16,29.79,29.65,18,5,18,0.00
2013-3-4,52.2,35.3,25.0,13.7,-0.7,-46.9,53,28,1,29.91,29.77,21,4,21,0.00
2013-3-5,50.4,40.0,28.8,36.8,26.2,12.5,79,60,22,29.89,29.39,17,3,17,0.28
2013-3-6,56.1,39.4,34.3,35.1,25.9,20.1,77,59,43,29.84,29.34,27,10,27,0.07
2013-3-7,51.4,41.1,31.8,23.9,19.7,15.6,62,43,26,30.04,29.83,21,5,21,0.00
2013-3-8,55.9,43.5,0.0,20.0,13.1,1.4,54,32,12,30.11,29.96,17,6,17,0.01
2013-3-9,63.0,45.5,28.8,23.7,13.6,-14.1,62,34,4,30.16,30.06,9,1,9,0.00
2013-3-10,68.0,49.1,28.0,32.6,3.6,-39.4,70,31,1,30.14,30.02,9,1,9,0.00
2013-3-11,69.1,54.8,37.4,44.4,32.1,3.3,62,44,13,30.06,29.75,20,7,20,0.00
2013-3-12,70.0,60.3,47.7,54.9,43.3,23.3,76,56,28,29.78,29.57,26,8,26,0.57
2013-3-13,56.8,44.9,-25.4,29.9,14.3,-39.1,68,32,10,29.94,29.76,19,6,19,0.00
2013-3-14,53.4,41.0,31.3,15.2,1.3,-22.5,47,22,4,30.04,29.91,17,7,17,0.00
2013-3-15,66.2,47.0,24.8,24.4,14.4,5.5,61,30,12,29.98,29.70,9,1,9,0.00
2013-3-16,77.0,59.5,40.6,45.0,32.0,23.9,61,39,16,29.71,29.45,21,4,21,0.00
2013-3-17,56.7,47.1,38.1,45.0,35.4,30.2,75,64,51,30.01,29.65,20,7,20,0.00
2013-3-18,40.8,38.3,36.1,34.2,31.6,29.6,77,77,75,30.02,29.67,12,4,12,0.13
2013-3-19,70.5,50.5,11.5,42.7,10.3,-71.0,78,41,1,29.85,29.62,102,6,102,0.01
2013-3-20,57.4,46.4,32.5,17.0,-23.3,-51.0,51,9,1,29.92,29.61,14,4,14,0.00
2013-3-21,46.0,38.3,29.7,23.2,5.8,-12.5,55,28,9,29.79,29.55,127,7,127,0.00
2013-3-22,53.8,37.8,23.5,14.6,-2.8,-46.1,50,23,1,29.89,29.76,127,6,127,0.00
2013-3-23,56.8,41.6,27.9,23.3,13.4,-5.2,62,38,8,29.88,29.72,5,0,5,0.00
2013-3-24,41.2,36.0,30.7,31.6,27.1,20.3,77,70,51,29.75,29.39,19,5,19,0.69
2013-3-25,52.9,39.1,33.1,32.3,22.2,5.3,77,55,23,29.62,29.37,24,5,24,0.04
2013-3-26,61.3,41.9,31.8,28.4,16.9,4.3,55,37,26,29.91,29.61,16,5,16,0.00
2013-3-27,57.9,41.5,32.9,19.5,13.2,0.3,55,34,13,30.03,29.91,20,6,20,0.00
2013-3-28,57.9,44.6,32.5,20.2,11.3,-4.0,54,30,8,30.10,29.96,17,6,17,0.01
2013-3-29,62.1,41.2,26.4,26.1,13.8,-7.1,66,40,6,30.14,29.99,3,0,3,0.00
2013-3-30,67.1,58.5,30.4,30.3,12.2,-7.1,65,21,5,30.06,29.90,2,0,2,0.00
2013-3-31,67.1,55.2,46.8,50.0,41.9,29.9,75,62,43,29.92,29.62,18,4,18,0.41
2013-4-1,93.2,59.8,45.9,48.5,34.7,13.4,77,46,11,29.81,29.62,22,5,22,0.04
2013-4-2,62.6,45.9,30.0,35.6,11.6,-29.0,68,33,3,29.98,29.81,14,1,14,0.00
2013-4-3,60.1,46.4,30.0,22.3,2.5,-42.7,54,24,1,30.12,29.96,4,0,4,0.00
2013-4-4,51.1,41.6,37.6,32.3,19.5,5.2,77,45,20,30.19,29.75,17,6,17,0.54
2013-4-5,73.9,48.9,37.9,40.4,32.7,15.2,78,58,15,29.83,29.69,15,4,15,0.08
2013-4-6,75.9,52.5,38.3,40.3,14.0,-19.4,70,28,5,30.10,29.83,18,4,18,0.11
2013-4-7,81.3,54.4,26.4,44.5,25.3,11.0,67,37,13,30.10,29.92,11,2,11,0.00
2013-4-8,79.7,65.0,-13.5,46.0,37.5,-39.0,55,37,21,29.95,29.80,99,6,99,0.00
2013-4-9,100.0,72.6,57.2,63.1,43.7,30.9,70,40,14,29.93,29.81,17,6,17,0.00
2013-4-10,91.2,74.3,49.5,56.6,46.5,27.8,66,41,15,29.85,29.69,24,7,24,0.00
2013-4-11,85.6,72.3,62.4,65.5,50.7,44.2,67,48,27,29.75,29.55,25,9,25,0.00
2013-4-12,81.3,69.8,66.6,62.9,58.5,48.1,76,68,39,29.57,29.38,26,11,26,0.98
2013-4-13,88.3,68.6,45.9,39.6,21.9,9.2,60,19,8,29.74,29.52,18,5,18,0.00
2013-4-14,81.3,72.3,64.9,38.1,18.6,-28.6,37,16,1,29.83,29.77,16,4,16,0.00
2013-4-15,71.8,63.2,55.4,50.4,47.8,37.7,74,58,37,29.98,29.80,16,3,16,0.11
2013-4-16,80.6,65.5,57.2,54.8,50.1,45.5,75,60,34,30.07,29.95,8,1,8,0.00
2013-4-17,89.2,68.5,55.6,65.3,53.3,46.7,77,61,35,29.99,29.87,12,3,14,0.00
2013-4-18,81.0,70.7,60.1,57.4,50.9,40.5,71,52,26,29.96,29.80,20,7,20,0.00
2013-4-19,84.4,71.1,65.3,63.8,57.0,52.9,76,62,41,29.81,29.45,29,11,29,0.90
2013-4-20,69.4,54.1,41.2,54.3,26.8,8.1,71,39,11,30.03,29.60,17,6,17,0.04
2013-4-21,63.7,50.1,38.3,32.2,26.6,16.6,73,44,21,30.26,30.02,21,6,21,0.00
2013-4-22,62.1,49.1,34.9,37.8,31.1,24.4,73,51,26,30.25,30.03,20,6,20,0.00
2013-4-23,69.4,53.9,46.9,41.6,37.9,27.6,72,57,29,30.04,29.87,15,6,15,0.01
2013-4-24,76.5,60.6,42.8,54.4,42.8,35.4,76,55,29,29.90,29.71,24,6,24,0.00
2013-4-25,81.1,60.0,44.6,49.7,33.4,19.1,69,40,14,30.03,29.76,21,6,21,0.00
2013-4-26,83.3,56.1,39.0,48.5,27.0,-3.8,75,44,6,30.19,30.03,17,3,17,0.00
2013-4-27,86.0,61.0,48.0,43.5,34.9,14.4,69,43,14,30.14,30.02,11,2,11,0.02
2013-4-28,66.4,57.0,53.1,48.8,45.8,40.3,75,66,55,30.00,29.85,10,2,10,0.21
2013-4-29,75.7,61.6,53.2,63.7,51.3,44.7,77,70,50,29.85,29.73,12,2,12,0.34
2013-4-30,66.7,59.6,54.7,54.4,49.9,45.5,79,71,54,29.95,29.77,16,5,16,0.00
2013-5-1,62.2,58.4,56.8,53.1,49.7,48.2,77,73,69,30.10,29.93,21,8,21,0.01
2013-5-2,64.2,57.8,52.2,51.7,47.5,43.1,76,69,57,30.11,30.02,14,5,14,0.00
2013-5-3,74.7,55.7,43.7,47.8,39.5,31.0,78,57,25,30.05,29.94,19,6,19,0.01
2013-5-4,61.3,53.0,47.8,46.3,41.2,36.2,71,64,54,29.99,29.85,16,7,16,0.00
2013-5-5,59.7,53.6,47.3,48.5,43.1,38.5,73,68,63,29.87,29.76,18,8,18,0.00
2013-5-6,68.0,59.8,55.0,57.8,51.8,46.9,78,75,68,29.78,29.60,16,5,16,1.76
2013-5-7,73.6,61.1,52.9,55.5,48.5,41.4,78,65,36,29.71,29.61,13,3,13,0.02
2013-5-8,71.4,59.8,50.4,54.3,48.6,42.4,77,67,46,29.77,29.67,14,3,14,0.07
2013-5-9,96.4,65.7,47.8,58.1,46.9,33.9,78,55,23,29.82,29.73,19,2,19,0.01
2013-5-10,92.3,70.1,54.1,58.1,50.2,36.3,76,54,21,29.83,29.70,18,4,18,0.00
2013-5-11,85.1,72.2,64.2,57.2,54.3,45.3,73,55,31,29.72,29.54,19,5,19,0.18
2013-5-12,78.4,63.3,48.2,55.8,39.1,14.4,75,46,12,29.79,29.55,16,5,16,0.06
2013-5-13,76.6,53.3,39.0,39.6,26.5,6.8,73,42,10,29.94,29.78,18,4,18,0.00
2013-5-14,71.6,55.6,36.9,38.9,29.1,10.6,74,43,11,30.01,29.83,15,3,15,0.00
2013-5-15,88.3,65.3,49.8,52.5,44.8,37.3,65,49,23,29.83,29.64,14,4,14,0.00
2013-5-16,101.1,79.2,58.8,58.9,48.8,40.2,73,37,22,29.74,29.68,14,4,14,0.00
2013-5-17,93.2,73.4,59.4,61.0,53.5,35.8,75,54,24,29.85,29.74,9,2,12,0.00
2013-5-18,82.8,69.0,59.0,63.5,56.1,45.9,75,64,54,29.94,29.83,13,3,13,0.80
2013-5-19,81.5,67.9,62.4,69.5,59.2,55.1,78,74,65,29.92,29.82,14,3,14,0.37
2013-5-20,79.7,70.3,66.7,65.0,60.9,58.5,78,73,54,29.88,29.79,11,4,11,0.28
2013-5-21,94.6,74.5,67.8,65.5,62.2,54.7,78,67,41,29.81,29.70,13,5,13,0.00
2013-5-22,85.3,75.1,68.4,63.7,60.6,49.4,74,62,37,29.79,29.67,20,7,20,0.00
2013-5-23,88.0,72.6,64.8,65.5,60.0,47.6,77,66,47,29.73,29.57,11,3,11,0.39
2013-5-24,70.9,64.0,52.7,60.0,41.4,19.4,75,47,18,29.95,29.57,29,10,29,0.00
2013-5-25,74.5,56.7,38.3,39.0,26.2,-12.0,73,40,3,30.02,29.88,20,4,20,0.00
2013-5-26,75.6,58.0,42.1,46.2,36.2,18.1,75,52,13,30.04,29.92,11,2,11,0.00
2013-5-27,80.8,63.7,46.0,52.9,44.2,36.8,76,54,22,30.04,29.91,13,3,13,0.00
2013-5-28,84.7,62.9,57.2,57.9,51.7,47.5,74,67,36,30.01,29.91,14,2,14,0.00
2013-5-29,86.4,74.0,61.3,59.3,54.5,50.2,74,53,30,30.00,29.92,17,5,17,0.00
2013-5-30,87.1,74.0,60.6,61.2,55.8,48.4,76,56,28,30.04,29.94,15,4,15,0.00
2013-5-31,87.1,75.2,62.4,63.9,57.6,51.8,76,57,30,29.99,29.87,17,4,17,0.00
2013-6-1,88.5,77.4,66.2,62.8,57.4,49.0,75,53,26,29.90,29.78,17,6,17,0.00
2013-6-2,86.2,76.5,67.3,63.3,58.6,55.5,75,55,36,29.81,29.67,39,7,44,1.49
2013-6-3,83.3,73.9,67.5,67.6,63.1,59.5,78,70,50,29.72,29.60,17,4,17,0.43
2013-6-4,80.8,69.9,63.3,59.7,56.0,51.5,79,63,38,29.88,29.71,13,3,13,0.00
2013-6-5,83.5,71.6,60.1,58.1,53.8,48.6,77,56,31,29.92,29.80,11,2,11,0.00
2013-6-6,75.2,69.7,63.9,64.9,58.9,48.5,78,69,49,29.83,29.58,15,5,15,0.48
2013-6-7,73.0,70.1,68.2,65.5,62.8,61.4,79,78,74,29.62,29.30,24,5,24,2.31
2013-6-8,84.2,70.6,64.9,64.2,60.8,55.5,80,72,38,29.87,29.57,24,4,24,0.05
2013-6-9,89.1,75.9,63.9,69.0,61.3,56.7,78,63,38,29.93,29.83,14,3,14,0.01
2013-6-10,81.7,74.0,71.2,69.4,65.2,62.9,78,74,64,29.87,29.65,23,7,23,1.70
2013-6-11,86.7,76.7,67.1,64.2,58.8,52.7,76,57,32,29.72,29.65,16,5,16,0.00
2013-6-12,91.0,81.0,62.2,66.5,61.9,54.9,77,55,36,29.73,29.63,13,3,13,0.00
2013-6-13,87.6,73.1,67.3,70.8,64.3,54.2,78,74,53,29.64,29.38,19,2,19,0.30
2013-6-14,79.3,68.0,60.8,59.9,51.3,44.6,74,57,31,29.78,29.49,21,5,21,0.00
2013-6-15,85.5,71.4,55.9,60.3,51.8,43.7,77,54,24,29.89,29.78,14,2,14,0.00
2013-6-16,87.6,76.0,63.0,61.3,57.4,52.3,75,54,37,29.88,29.76,17,6,17,0.00
2013-6-17,85.1,76.9,70.9,66.1,62.1,58.6,71,60,49,29.80,29.69,12,5,12,0.00
2013-6-18,84.0,73.9,68.0,66.4,63.2,60.2,77,70,52,29.74,29.53,14,6,14,0.00
2013-6-19,79.9,69.1,62.8,63.9,59.2,56.0,79,71,48,29.90,29.65,11,3,11,0.00
2013-6-20,83.3,71.9,62.2,60.0,54.7,48.6,78,58,32,30.02,29.89,11,3,11,0.00
2013-6-21,83.8,69.5,55.6,58.7,49.0,35.3,75,52,19,30.04,29.96,15,3,15,0.00
2013-6-22,85.3,73.6,68.0,64.2,61.3,57.9,77,66,45,29.99,29.89,13,4,13,0.00
2013-6-23,87.8,76.8,67.3,68.2,63.7,50.7,79,65,44,29.99,29.89,11,3,11,0.00
2013-6-24,100.2,77.9,70.2,68.5,64.6,58.8,77,64,44,29.98,29.85,17,5,17,0.00
2013-6-25,92.1,78.7,69.3,69.7,64.0,61.3,77,62,37,29.89,29.75,11,4,11,0.00
2013-6-26,98.2,77.3,67.6,74.0,63.1,55.2,77,64,38,29.80,29.65,26,5,34,0.00
2013-6-27,97.5,77.5,67.6,78.7,63.9,54.1,79,65,39,29.69,29.48,16,6,16,0.00
2013-6-28,97.7,78.4,68.9,82.8,64.9,53.1,78,65,40,29.52,29.33,46,6,46,0.00
2013-6-29,84.6,78.6,73.0,67.5,65.3,58.3,75,64,54,29.50,29.43,11,3,11,0.00
2013-6-30,86.2,74.9,69.4,69.8,64.8,55.1,79,72,50,29.64,29.48,14,4,14,0.00
2013-7-1,81.9,72.6,68.4,69.5,64.8,60.0,80,77,56,29.76,29.61,13,4,13,0.00
2013-7-2,76.1,74.0,72.3,67.2,65.6,64.0,79,75,71,29.96,29.76,15,6,15,0.00
2013-7-3,85.3,77.2,73.0,70.7,67.5,55.9,80,72,54,30.02,29.92,14,5,14,0.00
2013-7-4,98.6,79.1,72.7,73.7,65.8,54.1,80,65,40,30.06,29.95,16,5,16,0.00
2013-7-5,100.2,79.8,70.2,69.3,65.2,56.1,80,63,39,30.05,29.93,13,4,13,0.00
2013-7-6,90.9,79.6,72.5,69.3,65.1,53.7,78,63,40,30.02,29.89,13,4,13,0.00
2013-7-7,98.6,78.6,68.4,69.0,65.1,60.9,78,64,48,29.96,29.83,17,4,17,0.00
2013-7-8,102.6,82.3,70.5,75.2,64.9,48.4,79,57,37,29.95,29.86,9,3,10,0.00
2013-7-9,88.0,77.2,71.1,71.0,67.2,63.5,79,72,53,29.93,29.83,12,4,12,0.00
2013-7-10,90.9,80.4,71.4,73.6,65.7,62.5,79,60,48,29.87,29.71,21,8,21,0.00
2013-7-11,77.4,74.3,70.9,69.6,66.5,60.6,79,77,70,30.48,29.65,11,4,11,0.00
2013-7-12,73.6,70.9,69.6,66.3,63.3,61.4,79,77,72,29.81,29.64,5,3,5,0.06
2013-7-13,79.5,72.6,70.9,69.1,63.3,61.8,73,73,69,29.92,29.79,8,2,8,0.00
2013-7-14,77.4,74.2,70.9,68.4,65.7,62.9,76,75,74,30.08,30.00,3,2,3,0.01
2013-7-15,0.0,0.0,0.0,68.4,68.4,68.4,0,0,100,30.06,30.04,0,0,0,0.00
2013-7-19,91.2,91.2,91.2,64.9,64.9,64.9,42,42,42,29.78,29.78,13,13,13,0.00
2013-7-20,81.0,74.5,0.0,68.1,66.9,65.4,73,66,64,29.79,29.75,8,4,8,0.01
2013-7-21,95.5,83.8,76.8,71.8,62.3,56.8,53,49,45,29.76,29.68,0,0,0,0.00
2013-7-22,93.7,77.5,74.3,69.3,63.4,53.3,72,62,43,29.74,29.60,8,2,8,0.44
2013-7-23,106.3,80.7,71.6,66.8,64.3,53.5,75,59,36,29.62,29.49,16,4,16,0.00
2013-7-24,95.7,80.2,68.4,72.5,61.6,45.7,77,56,20,29.64,29.50,14,3,14,0.00
2013-7-25,81.0,72.9,65.1,63.1,59.7,52.7,75,64,46,29.81,29.61,15,5,15,0.06
2013-7-26,88.5,72.7,60.8,61.9,56.5,47.4,78,60,32,29.88,29.79,8,2,8,0.01
2013-7-27,85.8,72.8,64.2,68.7,60.6,54.2,78,67,39,29.83,29.70,14,2,14,0.18
2013-7-28,71.8,71.1,68.9,64.9,64.2,58.5,79,79,78,29.77,29.69,5,2,5,0.01
2013-7-29,71.8,71.8,71.8,64.9,64.9,64.9,79,79,79,29.94,29.76,2,2,2,0.00
2013-7-30,71.8,71.8,71.8,64.9,64.9,64.9,79,79,79,30.00,29.91,2,2,2,0.00
2013-7-31,92.3,75.8,71.4,68.1,64.1,55.9,79,68,46,29.93,29.79,12,3,12,0.00
2013-8-16,71.1,64.6,59.9,56.0,53.3,52.1,77,67,56,30.09,30.02,6,1,6,0.00
2013-8-17,71.8,65.8,59.5,63.9,58.6,52.5,80,77,73,30.09,30.02,11,5,12,0.24
2013-8-18,77.4,70.1,0.0,66.2,61.9,58.1,81,73,62,30.11,30.01,11,3,11,0.11
2013-8-19,84.6,69.9,65.5,74.2,61.9,59.0,81,76,63,30.11,30.00,8,2,8,0.31
2013-8-20,86.7,73.0,63.0,68.6,62.5,-35.1,82,71,48,30.09,30.01,7,1,7,0.00
2013-8-21,88.9,75.5,70.7,71.2,66.5,64.3,82,75,47,30.14,30.00,11,2,11,0.41
2013-8-22,91.4,79.1,69.4,73.0,63.9,53.6,83,63,32,30.04,29.89,10,2,10,0.05
2013-8-23,88.5,76.7,67.6,68.1,63.3,58.9,80,65,41,30.00,29.83,20,5,20,0.00
2013-8-24,83.5,71.5,61.9,59.6,55.2,48.3,79,60,31,30.21,29.99,14,5,14,0.00
2013-8-25,80.6,67.1,0.0,60.4,53.5,45.4,80,62,29,30.30,30.19,24,3,24,0.00
2013-8-26,84.9,67.8,50.9,59.8,49.6,-24.8,80,58,2,30.23,30.01,9,1,9,0.00
2013-8-27,106.3,73.6,25.9,68.0,59.6,9.4,79,64,33,30.02,29.86,9,1,10,0.00
2013-8-28,81.9,75.1,66.6,70.1,66.0,60.2,81,74,62,29.89,29.75,11,2,11,0.00
2013-8-29,93.6,78.5,71.2,68.8,65.9,60.7,76,66,47,29.93,29.74,17,5,17,0.00
2013-8-30,101.3,75.1,63.5,67.7,61.8,46.1,84,66,36,29.98,29.84,8,1,8,0.00
2013-8-31,88.9,78.7,65.7,68.9,64.2,59.5,84,63,45,29.87,29.77,14,5,14,0.00
2013-9-1,92.1,77.5,69.4,72.7,67.3,61.1,84,73,44,29.81,29.69,14,4,14,0.27
2013-9-2,91.9,62.9,0.0,73.0,66.5,-8.0,84,54,42,29.79,29.70,11,3,11,0.01
2013-9-3,0.0,0.0,0.0,65.3,65.3,65.3,0,0,100,29.85,29.69,0,0,0,0.00
2013-9-4,0.0,0.0,0.0,65.3,65.3,65.3,0,0,100,30.00,29.84,0,0,0,0.00
2013-9-5,0.0,0.0,0.0,65.3,65.3,65.3,0,0,100,30.00,29.93,0,0,0,0.00
2013-9-6,0.0,0.0,0.0,65.3,65.3,65.3,0,0,100,30.09,29.99,0,0,0,0.00
2013-9-7,0.0,0.0,0.0,65.3,65.3,65.3,0,0,100,30.04,30.01,0,0,0,0.00
2013-9-8,103.6,74.7,0.0,66.8,58.4,38.6,78,53,22,30.06,29.79,10,2,11,0.00
2013-9-9,104.7,77.0,63.9,69.0,59.8,51.9,82,60,24,30.11,29.94,9,2,9,0.00
2013-9-10,110.5,77.6,64.6,71.1,61.4,43.7,82,62,25,30.18,30.08,11,2,11,0.00
2013-9-11,99.1,76.6,64.0,70.4,60.8,56.3,82,62,29,30.16,30.02,14,3,14,0.00
2013-9-12,68.4,68.1,67.8,61.3,61.0,60.5,78,78,78,30.02,30.01,2,2,2,0.00
2013-10-13,90.9,79.2,70.3,66.6,63.8,61.8,77,61,39,30.11,29.96,10,5,10,0.00
2013-10-14,88.7,74.9,67.6,68.8,62.6,57.4,79,67,41,30.05,29.79,22,6,22,0.00
2013-10-15,90.1,80.2,71.8,69.6,65.6,61.6,78,63,41,29.84,29.64,20,5,20,0.00
2013-10-16,84.2,74.5,69.3,67.4,63.9,58.7,79,71,47,29.76,29.66,11,5,11,0.00
2013-10-17,85.8,76.8,70.0,69.6,65.4,60.9,79,69,48,29.89,29.74,11,4,11,0.00
2013-10-18,81.9,73.4,69.6,67.2,64.4,61.7,80,74,56,30.01,29.87,8,3,8,0.00
2013-10-19,82.2,62.2,57.6,66.8,54.9,51.3,80,77,55,30.19,29.92,10,1,10,0.01
2013-10-20,69.4,54.0,40.1,51.6,37.9,28.4,81,59,24,30.19,29.96,15,2,15,0.00
2013-10-21,72.5,51.1,33.8,46.4,35.4,27.5,81,60,20,30.23,30.06,8,2,8,0.00
2013-10-22,71.8,58.1,48.9,53.3,47.5,41.2,79,69,41,30.07,29.86,8,2,8,0.00
2013-10-23,69.3,57.4,44.6,53.2,40.3,22.3,83,57,18,30.06,29.75,21,5,21,0.31
2013-10-24,60.6,46.5,33.6,33.1,27.3,20.8,73,50,22,30.25,30.05,21,3,21,0.00
2013-10-25,57.4,45.1,32.0,32.1,24.1,14.0,71,47,19,30.41,30.24,17,4,17,0.00
2013-10-26,61.2,43.3,27.0,34.6,23.4,15.2,79,51,17,30.41,30.11,20,4,20,0.00
2013-10-27,71.2,52.5,37.9,40.7,31.0,18.8,75,49,14,30.19,30.10,15,2,15,0.00
2013-10-28,73.4,54.0,38.5,48.2,40.2,31.9,79,62,29,30.32,30.18,9,1,9,0.00
2013-10-29,73.6,59.6,51.1,53.1,47.0,43.8,80,65,38,30.40,30.30,9,1,9,0.00
2013-10-30,76.1,60.0,51.4,54.5,49.6,44.5,82,70,43,30.36,30.22,16,3,16,0.00
2013-10-31,74.1,55.1,52.5,56.2,48.2,46.2,82,78,45,30.26,29.99,14,2,14,0.00
2013-11-1,73.2,68.3,63.1,62.5,60.0,56.9,82,75,61,29.96,29.72,27,9,27,0.21
2013-11-2,75.0,62.4,54.7,56.9,42.5,26.0,81,53,18,30.00,29.75,15,4,15,0.01
2013-11-3,64.9,50.8,36.5,34.9,29.6,22.6,72,47,21,30.44,30.00,22,4,22,0.00
2013-11-4,56.3,42.2,31.8,31.5,25.7,18.4,76,55,24,30.63,30.43,19,5,28,0.00
2013-11-5,60.8,47.5,35.4,42.0,34.1,24.8,69,60,44,30.61,30.49,16,5,16,0.00
2013-11-6,75.0,56.5,43.0,47.2,42.5,35.3,77,62,35,30.49,30.17,11,3,11,0.00
2013-11-7,71.6,58.0,42.8,57.9,43.1,23.2,82,60,33,30.18,29.98,18,4,19,0.02
2013-11-8,44.2,37.5,30.0,26.5,21.0,19.1,67,52,39,30.39,30.16,20,2,20,0.00
2013-11-9,58.3,42.3,27.1,32.5,21.8,14.7,76,49,19,30.43,30.22,14,3,14,0.00
2013-11-10,73.6,53.8,33.4,37.9,21.9,3.8,73,36,7,30.30,30.11,27,4,27,0.00
2013-11-11,38.8,36.3,35.2,24.8,23.6,22.7,64,60,53,30.23,30.18,2,0,2,0.00
2013-11-12,58.3,36.8,31.1,38.9,25.8,14.0,75,65,33,30.40,30.09,19,2,19,0.12
2013-11-13,33.4,26.0,23.2,12.8,11.7,9.8,63,54,37,30.54,30.50,5,1,5,0.00
2013-11-14,62.1,38.1,18.9,23.3,8.4,-27.4,74,41,2,30.50,29.74,17,3,17,0.00
2013-11-15,61.5,44.6,25.5,37.7,25.5,15.2,69,50,25,30.41,30.26,11,2,11,0.00
2013-11-16,59.9,53.9,47.8,51.3,46.8,37.6,82,77,66,30.34,30.27,8,2,8,0.09
2013-11-17,68.7,59.9,53.6,56.9,52.5,48.2,84,77,61,30.29,29.98,12,3,12,0.02
2013-11-18,75.6,65.5,51.8,59.2,33.0,19.0,82,31,15,30.04,29.88,19,4,19,0.07
2013-11-19,57.0,47.5,38.3,24.0,19.6,13.9,54,34,19,30.39,30.03,21,5,21,0.00
2013-11-20,52.9,43.1,34.0,31.6,24.0,20.4,68,48,30,30.52,30.38,21,6,21,0.00
2013-11-21,59.7,48.2,38.3,39.6,35.2,29.6,73,61,46,30.57,30.44,14,4,14,0.00
2013-11-22,70.5,58.0,44.6,53.8,46.4,36.5,75,65,52,30.45,30.13,17,4,17,0.00
2013-11-23,62.8,57.0,43.0,53.7,37.0,12.9,76,51,18,30.19,30.09,17,5,17,0.00
2013-11-24,37.2,29.4,23.4,1.7,-6.6,-17.7,38,22,9,30.56,30.48,16,3,16,0.04
2013-11-25,45.7,38.9,25.0,15.2,-5.4,-19.4,60,17,6,30.64,30.43,12,5,12,0.00
2013-11-26,63.5,42.4,32.9,58.6,32.5,10.2,84,70,34,30.42,29.66,21,6,21,0.96
2013-11-27,46.6,38.8,27.9,42.0,31.2,13.4,84,74,53,30.20,29.56,22,4,22,0.53
2013-11-28,47.8,31.5,21.0,17.6,13.7,7.5,70,50,21,30.53,30.19,13,2,13,0.01
2013-11-29,49.8,33.6,21.2,26.3,17.3,14.5,77,55,25,30.70,30.51,17,4,17,0.00
2013-11-30,49.5,31.7,24.8,25.4,19.5,15.8,74,62,37,30.71,30.42,14,4,15,0.00
2013-12-1,45.0,26.4,23.0,32.8,19.7,16.9,79,75,54,30.42,30.31,8,1,8,0.00
2013-12-2,61.5,48.9,28.0,41.5,33.5,21.2,78,57,35,30.08,29.89,10,2,10,0.00
2013-12-3,57.6,45.3,30.6,40.7,34.4,24.8,81,67,47,30.06,29.93,12,2,12,0.01
2013-12-4,64.0,54.8,48.2,53.7,47.5,40.5,82,77,65,30.15,30.04,8,1,8,0.04
2013-12-5,68.2,61.2,52.9,60.0,55.8,47.2,84,82,71,30.19,30.08,17,6,17,0.08
2013-12-6,77.9,70.2,64.8,60.9,58.2,55.7,84,67,48,30.12,30.02,32,11,32,0.01
2013-12-7,69.6,46.0,41.2,59.7,36.1,26.3,81,69,55,30.52,30.06,26,10,26,0.59
2013-12-8,41.2,34.5,31.6,29.2,26.1,21.0,83,72,53,30.54,30.34,20,6,20,0.32
2013-12-9,43.7,38.5,33.1,39.2,34.0,28.5,84,84,83,30.35,30.11,8,3,8,0.38
2013-12-10,44.6,41.5,27.3,40.1,34.8,17.7,84,77,51,30.37,29.98,14,4,14,0.30
2013-12-11,52.0,34.3,22.1,27.6,18.3,8.5,79,56,18,30.50,30.33,14,2,14,0.00
2013-12-12,45.1,33.8,22.3,24.2,11.8,-2.9,74,45,15,30.47,30.32,16,3,16,0.00
2013-12-13,53.4,34.1,18.9,23.1,13.4,3.7,74,49,14,30.43,30.31,14,2,14,0.00
2013-12-14,46.2,38.9,34.3,35.3,29.7,22.7,83,70,40,30.35,29.84,13,3,13,0.76
2013-12-15,54.7,42.1,29.1,41.5,29.6,19.4,84,64,35,30.12,29.75,14,4,15,0.01
2013-12-16,57.7,38.8,25.2,32.1,24.4,18.7,78,59,28,30.22,30.11,10,2,10,0.00
2013-12-17,62.2,44.1,28.8,35.5,28.7,22.5,80,58,29,30.17,29.92,24,4,24,0.00
2013-12-18,50.4,39.6,26.6,31.6,14.8,5.4,69,39,16,30.34,30.08,17,4,17,0.00
2013-12-19,64.2,44.1,24.4,21.0,14.2,-5.1,68,37,6,30.36,30.25,21,5,21,0.00
2013-12-20,68.4,52.9,35.8,46.7,35.7,20.2,68,53,34,30.30,30.15,20,5,20,0.00
2013-12-21,73.6,60.7,46.9,61.0,50.0,40.4,80,69,50,30.21,30.08,27,7,27,0.00
2013-12-22,77.2,69.9,64.0,62.2,59.7,53.8,83,71,52,30.16,30.05,24,10,27,0.14
2013-12-23,66.2,59.9,45.9,60.9,52.9,31.5,84,78,57,30.22,30.05,20,7,20,1.00
2013-12-24,47.8,40.1,27.5,31.5,21.1,6.8,63,47,30,30.51,30.20,19,8,19,0.00
2013-12-25,43.2,28.8,19.2,11.4,8.0,-0.3,66,44,17,30.61,30.44,11,3,11,0.00
2013-12-26,55.4,31.2,18.7,24.6,16.6,9.4,75,59,21,30.45,30.29,12,2,12,0.00
2013-12-27,56.8,34.6,21.7,26.0,16.0,5.1,77,53,14,30.52,30.41,11,2,11,0.00
2013-12-28,58.6,40.3,22.6,35.9,22.6,14.4,77,55,18,30.46,30.22,10,2,10,0.02
2013-12-29,56.8,46.5,38.1,48.7,39.5,32.2,84,77,65,30.22,29.76,16,3,16,1.25
2013-12-30,55.4,43.9,34.2,42.9,33.1,27.5,84,67,49,30.20,29.98,10,2,10,0.00
2013-12-31,53.2,41.1,30.0,32.7,23.2,12.6,77,53,20,30.41,30.17,20,4,21,0.00
2014-1-1,51.4,36.4,27.7,26.4,21.5,15.9,75,58,25,30.48,30.20,10,2,10,0.00
2014-1-2,46.4,39.8,30.9,38.5,32.1,23.3,83,74,58,30.20,29.65,11,2,11,0.37